Time;durP1;ratioP1;P1;durP2;ratioP2;P2;SDS_P1;SDS_P2;PMS_P1;PMS_P2;Temp;Humidity;BMP_temperature;BMP_pressure;BME280_temperature;BME280_humidity;BME280_pressure;Samples;Min_cycle;Max_cycle;Signal;HPM_P1;HPM_P2
2021/08/15 00:00:06;;;;;;;30.20;24.73;;;25.50;99.50;;;;;;5078048;28;20120;-88
2021/08/15 00:02:32;;;;;;;29.27;24.08;;;25.50;99.50;;;;;;5071948;28;20028;-88
2021/08/15 00:05:01;;;;;;;30.65;24.20;;;25.60;99.50;;;;;;5071890;28;20024;-88
2021/08/15 00:07:29;;;;;;;31.33;24.42;;;25.60;99.50;;;;;;5072184;28;20032;-88
2021/08/15 00:09:55;;;;;;;29.83;24.02;;;25.50;99.50;;;;;;5071637;28;20028;-88
2021/08/15 00:12:20;;;;;;;29.00;24.50;;;25.50;99.50;;;;;;5071875;28;20515;-88
2021/08/15 00:14:46;;;;;;;30.50;25.33;;;25.50;99.50;;;;;;5071646;28;20032;-88
2021/08/15 00:17:12;;;;;;;29.48;23.50;;;25.50;99.50;;;;;;5073553;28;20051;-88
2021/08/15 00:19:38;;;;;;;30.33;24.08;;;25.50;99.50;;;;;;5071900;28;20028;-88
2021/08/15 00:22:05;;;;;;;28.70;23.42;;;25.50;99.70;;;;;;5071409;28;20554;-88
2021/08/15 00:24:35;;;;;;;29.98;23.92;;;25.60;99.50;;;;;;5072952;28;20028;-88
2021/08/15 00:27:01;;;;;;;28.50;23.00;;;25.50;99.50;;;;;;5055441;28;20035;-88
2021/08/15 00:29:29;;;;;;;27.38;23.08;;;25.50;99.50;;;;;;5073305;28;20032;-88
2021/08/15 00:31:57;;;;;;;24.98;22.23;;;25.50;99.50;;;;;;5072639;28;20028;-88
2021/08/15 00:34:23;;;;;;;28.63;23.33;;;25.60;99.50;;;;;;5071569;28;20029;-88
2021/08/15 00:36:54;;;;;;;29.55;23.98;;;25.50;99.50;;;;;;5071462;28;20192;-88
2021/08/15 00:39:19;;;;;;;26.92;23.00;;;25.50;99.50;;;;;;5072287;28;20024;-87
2021/08/15 00:41:45;;;;;;;28.95;23.58;;;25.50;99.50;;;;;;5072752;28;20082;-88
2021/08/15 00:44:12;;;;;;;28.45;22.30;;;25.50;99.50;;;;;;5071227;28;20035;-87
2021/08/15 00:46:39;;;;;;;27.67;22.67;;;25.60;99.50;;;;;;5073041;28;20464;-88
2021/08/15 00:49:07;;;;;;;29.20;22.98;;;25.50;99.50;;;;;;5074041;28;20107;-88
2021/08/15 00:51:35;;;;;;;28.33;22.67;;;25.50;99.50;;;;;;5071698;28;20387;-88
2021/08/15 00:54:01;;;;;;;25.05;21.05;;;25.50;99.50;;;;;;5054376;28;20068;-88
2021/08/15 00:56:27;;;;;;;27.23;23.17;;;25.50;99.50;;;;;;5072624;28;20029;-88
2021/08/15 00:58:54;;;;;;;26.90;22.05;;;25.50;99.50;;;;;;5072426;28;20031;-88
2021/08/15 01:01:20;;;;;;;27.20;22.58;;;25.50;99.50;;;;;;5072387;28;20032;-88
2021/08/15 01:03:48;;;;;;;26.60;21.58;;;25.50;99.50;;;;;;5071025;28;20044;-88
2021/08/15 01:06:14;;;;;;;26.90;21.48;;;25.50;99.50;;;;;;5070928;28;20025;-88
2021/08/15 01:08:43;;;;;;;25.83;21.70;;;25.50;99.50;;;;;;5077383;28;20031;-88
2021/08/15 01:11:10;;;;;;;27.83;22.73;;;25.50;99.50;;;;;;5074268;28;20032;-88
2021/08/15 01:13:37;;;;;;;27.08;20.98;;;25.50;99.50;;;;;;5074882;28;20037;-88
2021/08/15 01:16:07;;;;;;;25.10;21.55;;;25.50;99.50;;;;;;5074619;28;20095;-88
2021/08/15 01:18:35;;;;;;;24.48;20.38;;;25.50;99.50;;;;;;5075607;28;20032;-88
2021/08/15 01:21:12;;;;;;;25.42;21.73;;;25.50;99.50;;;;;;5079352;28;20029;-88
2021/08/15 01:23:41;;;;;;;23.15;19.60;;;25.50;99.50;;;;;;5100681;28;20473;-87
2021/08/15 01:26:13;;;;;;;24.00;20.33;;;25.50;99.50;;;;;;5085169;28;20055;-88
2021/08/15 01:28:38;;;;;;;25.77;20.85;;;25.50;99.50;;;;;;5078395;28;20120;-88
2021/08/15 01:31:04;;;;;;;24.13;19.63;;;25.50;99.50;;;;;;5077956;28;20499;-88
2021/08/15 01:33:33;;;;;;;25.23;20.48;;;25.50;99.50;;;;;;5096190;28;20154;-87
2021/08/15 01:36:02;;;;;;;24.65;19.65;;;25.50;99.50;;;;;;5077991;28;20169;-91
2021/08/15 01:38:30;;;;;;;23.85;19.60;;;25.50;99.50;;;;;;5077846;28;20031;-88
2021/08/15 01:40:59;;;;;;;24.67;20.13;;;25.50;99.50;;;;;;5077777;28;20507;-88
2021/08/15 01:43:28;;;;;;;24.95;19.50;;;25.50;99.50;;;;;;5098659;28;20501;-88
2021/08/15 01:45:54;;;;;;;25.88;19.98;;;25.50;99.50;;;;;;5077967;28;20031;-88
2021/08/15 01:48:22;;;;;;;23.88;19.20;;;25.50;99.50;;;;;;5095706;28;20455;-88
2021/08/15 01:50:49;;;;;;;23.27;18.83;;;25.50;99.50;;;;;;5095863;28;20030;-88
2021/08/15 01:53:20;;;;;;;21.58;17.70;;;25.50;99.50;;;;;;5095591;28;20040;-88
2021/08/15 01:55:46;;;;;;;22.02;18.77;;;25.50;99.50;;;;;;5079217;28;20036;-88
2021/08/15 01:58:15;;;;;;;24.40;18.88;;;25.50;99.50;;;;;;5095308;28;20024;-88
2021/08/15 02:00:42;;;;;;;20.25;17.30;;;25.50;99.50;;;;;;5077507;28;20100;-88
2021/08/15 02:03:13;;;;;;;21.55;17.63;;;25.50;99.50;;;;;;5077226;28;20036;-89
2021/08/15 02:05:41;;;;;;;20.92;17.00;;;25.50;99.50;;;;;;5095810;28;20069;-88
2021/08/15 02:08:07;;;;;;;21.55;18.45;;;25.50;99.50;;;;;;5076867;28;20055;-89
2021/08/15 02:10:33;;;;;;;20.17;17.17;;;25.50;99.50;;;;;;5060613;28;20028;-88
2021/08/15 02:13:03;;;;;;;24.15;17.75;;;25.50;99.50;;;;;;5077343;28;20077;-88
2021/08/15 02:15:29;;;;;;;21.17;17.92;;;25.50;99.50;;;;;;5077419;28;20024;-88
2021/08/15 02:17:55;;;;;;;22.67;17.90;;;25.50;99.50;;;;;;5082622;28;20024;-88
2021/08/15 02:20:21;;;;;;;22.25;17.90;;;25.50;99.50;;;;;;5095626;28;20034;-89
2021/08/15 02:22:47;;;;;;;20.90;17.15;;;25.50;99.50;;;;;;5076576;28;20131;-88
2021/08/15 02:25:17;;;;;;;19.15;15.90;;;25.50;99.50;;;;;;5094495;28;20468;-88
2021/08/15 02:27:44;;;;;;;22.48;17.50;;;25.50;99.50;;;;;;5094876;28;20033;-89
2021/08/15 02:30:15;;;;;;;20.08;16.38;;;25.50;99.50;;;;;;5059953;28;20089;-88
2021/08/15 02:32:42;;;;;;;18.70;15.88;;;25.50;99.50;;;;;;5077206;28;20085;-88
2021/08/15 02:35:09;;;;;;;20.13;16.33;;;25.50;99.50;;;;;;5076312;28;20043;-88
2021/08/15 02:37:37;;;;;;;19.73;16.55;;;25.50;99.50;;;;;;5076806;28;20081;-88
2021/08/15 02:40:07;;;;;;;18.52;15.85;;;25.50;99.50;;;;;;5076804;28;20050;-88
2021/08/15 02:42:35;;;;;;;18.48;16.00;;;25.50;99.50;;;;;;5096288;28;20036;-87
2021/08/15 02:45:02;;;;;;;18.50;15.85;;;25.50;99.50;;;;;;5097513;28;20098;-88
2021/08/15 02:47:28;;;;;;;17.17;14.38;;;25.50;99.50;;;;;;5076338;28;20024;-88
2021/08/15 02:49:56;;;;;;;19.27;15.88;;;25.50;99.50;;;;;;5094333;28;20027;-88
2021/08/15 02:52:24;;;;;;;18.05;15.00;;;25.50;99.50;;;;;;5081041;28;20128;-89
2021/08/15 02:54:50;;;;;;;17.60;14.27;;;25.50;99.50;;;;;;5096407;28;20020;-88
2021/08/15 02:57:16;;;;;;;17.10;14.60;;;25.50;99.50;;;;;;5076156;28;20076;-88
2021/08/15 02:59:44;;;;;;;18.85;15.50;;;25.50;99.50;;;;;;5076554;28;20028;-88
2021/08/15 03:02:14;;;;;;;16.35;13.88;;;25.50;99.50;;;;;;5076154;28;20426;-88
2021/08/15 03:04:43;;;;;;;16.92;13.95;;;25.50;99.50;;;;;;5076316;28;20488;-88
2021/08/15 03:07:09;;;;;;;17.20;13.73;;;25.50;99.50;;;;;;5076020;28;20036;-89
2021/08/15 03:09:35;;;;;;;17.58;14.30;;;25.50;99.50;;;;;;5076329;28;20457;-88
2021/08/15 03:12:02;;;;;;;15.88;13.38;;;25.50;99.50;;;;;;5101604;28;20024;-88
2021/08/15 03:14:27;;;;;;;16.40;13.35;;;25.50;99.50;;;;;;5059442;28;20032;-88
2021/08/15 03:16:53;;;;;;;17.25;13.35;;;25.50;99.50;;;;;;5075783;28;20035;-88
2021/08/15 03:19:21;;;;;;;16.52;13.18;;;25.50;99.50;;;;;;5093887;28;20028;-87
2021/08/15 03:21:47;;;;;;;15.10;12.68;;;25.50;99.50;;;;;;5076898;28;20058;-88
2021/08/15 03:24:13;;;;;;;15.68;13.18;;;25.50;99.50;;;;;;5065627;28;20036;-89
2021/08/15 03:26:43;;;;;;;13.70;11.80;;;25.50;99.50;;;;;;5079057;28;20477;-88
2021/08/15 03:29:10;;;;;;;14.48;12.20;;;25.50;99.50;;;;;;5074907;28;20476;-91
2021/08/15 03:31:36;;;;;;;15.73;12.30;;;25.50;99.50;;;;;;5075606;28;20029;-88
2021/08/15 03:34:02;;;;;;;13.38;11.63;;;25.50;99.50;;;;;;5075416;28;20077;-88
2021/08/15 03:36:30;;;;;;;14.57;11.95;;;25.50;99.50;;;;;;5093414;28;20077;-88
2021/08/15 03:38:55;;;;;;;14.45;11.82;;;25.50;99.50;;;;;;5094070;28;20034;-88
2021/08/15 03:41:21;;;;;;;13.75;11.43;;;25.50;99.50;;;;;;5093577;28;20020;-88
2021/08/15 03:43:47;;;;;;;15.38;12.10;;;25.50;99.50;;;;;;5075742;28;20126;-88
2021/08/15 03:46:15;;;;;;;13.50;11.50;;;25.50;99.50;;;;;;5075699;28;20040;-87
2021/08/15 03:48:40;;;;;;;13.50;11.20;;;25.50;99.50;;;;;;5093331;28;20390;-88
2021/08/15 03:51:09;;;;;;;13.50;10.70;;;25.50;99.60;;;;;;5075588;28;20035;-87
2021/08/15 03:53:42;;;;;;;13.80;11.48;;;25.50;99.60;;;;;;5093288;28;20465;-88
2021/08/15 03:56:08;;;;;;;16.73;11.77;;;25.50;99.50;;;;;;5077697;28;20028;-88
2021/08/15 03:58:40;;;;;;;12.07;10.38;;;25.50;99.50;;;;;;5093726;28;20098;-88
2021/08/15 04:01:06;;;;;;;12.90;10.57;;;25.50;99.50;;;;;;5075387;28;20138;-87
2021/08/15 04:03:39;;;;;;;11.88;10.27;;;25.50;99.50;;;;;;5075087;28;20110;-88
2021/08/15 04:06:08;;;;;;;13.98;11.18;;;25.50;99.50;;;;;;5075188;28;20390;-88
2021/08/15 04:08:35;;;;;;;12.75;9.85;;;25.50;99.50;;;;;;5096753;28;20442;-88
2021/08/15 04:11:01;;;;;;;11.68;9.55;;;25.50;99.50;;;;;;5074405;28;20024;-88
2021/08/15 04:13:29;;;;;;;11.85;9.13;;;25.50;99.50;;;;;;5092947;28;20051;-88
2021/08/15 04:15:57;;;;;;;11.48;9.77;;;25.50;99.50;;;;;;5074660;28;20020;-88
2021/08/15 04:18:31;;;;;;;11.02;9.23;;;25.50;99.50;;;;;;5091695;28;20478;-89
2021/08/15 04:20:57;;;;;;;10.82;8.43;;;25.50;99.50;;;;;;5077718;28;20085;-88
2021/08/15 04:23:26;;;;;;;12.85;10.18;;;25.50;99.40;;;;;;5074690;28;20051;-88
2021/08/15 04:25:54;;;;;;;10.20;9.10;;;25.50;99.50;;;;;;5074722;28;20090;-89
2021/08/15 04:28:25;;;;;;;12.27;9.50;;;25.50;99.50;;;;;;5092853;28;20028;-88
2021/08/15 04:30:54;;;;;;;11.18;9.10;;;25.50;99.40;;;;;;5092891;28;20024;-88
2021/08/15 04:33:21;;;;;;;12.18;9.13;;;25.50;99.40;;;;;;5078224;28;20035;-88
2021/08/15 04:35:50;;;;;;;13.15;9.95;;;25.50;99.40;;;;;;5092917;28;20032;-88
2021/08/15 04:38:27;;;;;;;12.80;9.93;;;25.50;99.40;;;;;;5092987;28;20031;-92
2021/08/15 04:40:55;;;;;;;13.07;10.18;;;25.50;99.40;;;;;;5060364;28;20073;-88
2021/08/15 04:43:28;;;;;;;12.80;10.40;;;25.50;99.40;;;;;;5084841;28;20058;-89
2021/08/15 04:45:58;;;;;;;12.15;9.80;;;25.50;99.40;;;;;;5114647;28;20076;-88
2021/08/15 04:48:24;;;;;;;12.90;10.75;;;25.50;99.40;;;;;;5078670;28;20028;-88
2021/08/15 04:50:52;;;;;;;14.02;11.00;;;25.50;99.30;;;;;;5097302;28;20027;-88
2021/08/15 04:53:18;;;;;;;13.52;11.15;;;25.50;99.40;;;;;;5078407;28;20067;-89
2021/08/15 04:55:54;;;;;;;;;;;;;;;;;;;;;
2021/08/15 04:58:22;;;;;;;13.73;11.35;;;25.50;99.40;;;;;;5096586;28;20028;-89
2021/08/15 05:00:50;;;;;;;16.73;12.95;;;25.50;99.30;;;;;;5096965;28;20039;-88
2021/08/15 05:03:20;;;;;;;16.05;12.25;;;25.50;99.30;;;;;;5066956;28;20545;-88
2021/08/15 05:05:54;;;;;;;16.80;14.20;;;25.50;99.30;;;;;;5078568;28;20028;-88
2021/08/15 05:08:20;;;;;;;16.80;14.25;;;25.50;99.30;;;;;;5077702;28;20060;-89
2021/08/15 05:10:53;;;;;;;19.73;15.68;;;25.50;99.30;;;;;;5080811;28;20143;-89
2021/08/15 05:13:18;;;;;;;21.77;16.55;;;25.50;99.30;;;;;;5078476;28;20028;-91
2021/08/15 05:15:44;;;;;;;22.20;15.43;;;25.50;99.30;;;;;;5078069;28;20020;-88
2021/08/15 05:18:10;;;;;;;20.50;16.08;;;25.50;99.30;;;;;;5096250;28;20046;-88
2021/08/15 05:20:38;;;;;;;20.05;16.27;;;25.50;99.30;;;;;;5078172;28;20024;-88
2021/08/15 05:23:04;;;;;;;20.52;17.08;;;25.50;99.60;;;;;;5077448;28;20083;-87
2021/08/15 05:25:32;;;;;;;23.48;18.52;;;25.50;99.30;;;;;;5061174;28;20088;-89
2021/08/15 05:28:00;;;;;;;22.90;19.45;;;25.50;99.40;;;;;;5095938;28;20500;-89
2021/08/15 05:30:26;;;;;;;27.52;21.23;;;25.50;99.60;;;;;;5077829;28;20116;-88
2021/08/15 05:32:52;;;;;;;26.48;20.98;;;25.50;99.40;;;;;;5078002;28;20131;-88
2021/08/15 05:35:20;;;;;;;27.70;22.05;;;25.50;99.30;;;;;;5096162;28;20028;-88
2021/08/15 05:37:49;;;;;;;29.00;23.27;;;25.50;99.40;;;;;;5077602;28;20037;-89
2021/08/15 05:40:15;;;;;;;28.63;22.88;;;25.50;99.30;;;;;;5097195;28;20036;-88
2021/08/15 05:42:41;;;;;;;30.42;24.02;;;25.50;99.40;;;;;;5078088;28;20032;-88
2021/08/15 05:45:10;;;;;;;31.10;24.50;;;25.50;99.40;;;;;;5096300;28;20031;-88
2021/08/15 05:47:39;;;;;;;32.67;25.25;;;25.50;99.30;;;;;;5095940;28;20031;-88
2021/08/15 05:50:09;;;;;;;30.35;24.33;;;25.50;99.30;;;;;;5077561;28;20024;-88
2021/08/15 05:52:36;;;;;;;30.10;23.35;;;25.50;99.30;;;;;;5063949;28;20070;-88
2021/08/15 05:55:02;;;;;;;28.88;23.30;;;25.50;99.30;;;;;;5077370;28;20024;-88
2021/08/15 05:57:32;;;;;;;30.38;23.35;;;25.50;99.30;;;;;;5099618;28;20084;-89
2021/08/15 06:00:07;;;;;;;31.90;24.33;;;25.60;99.40;;;;;;5077787;28;20086;-88
2021/08/15 06:02:35;;;;;;;27.40;21.65;;;25.50;99.30;;;;;;5061875;28;20071;-88
2021/08/15 06:05:01;;;;;;;28.23;21.63;;;25.50;99.30;;;;;;5077537;28;20106;-88
2021/08/15 06:07:29;;;;;;;27.75;21.33;;;25.50;99.40;;;;;;5077048;28;20089;-87
2021/08/15 06:09:55;;;;;;;25.25;20.67;;;25.50;99.40;;;;;;5077124;28;20024;-86
2021/08/15 06:12:21;;;;;;;24.63;20.20;;;25.50;99.30;;;;;;5077393;28;20111;-88
2021/08/15 06:14:49;;;;;;;23.42;18.98;;;25.50;99.30;;;;;;5076279;28;20036;-89
2021/08/15 06:17:20;;;;;;;22.52;17.63;;;25.60;99.40;;;;;;5076899;28;20028;-89
2021/08/15 06:19:46;;;;;;;19.98;14.25;;;25.50;99.60;;;;;;5059617;28;20442;-88
2021/08/15 06:22:13;;;;;;;17.40;13.50;;;25.60;99.70;;;;;;5076622;28;20062;-88
2021/08/15 06:24:39;;;;;;;16.60;12.70;;;25.60;99.80;;;;;;5063086;28;20031;-88
2021/08/15 06:27:07;;;;;;;19.70;13.02;;;25.60;99.90;;;;;;5100583;28;20032;-90
2021/08/15 06:29:35;;;;;;;14.27;10.05;;;25.60;99.90;;;;;;5075048;28;20020;-88
2021/08/15 06:32:04;;;;;;;12.85;9.20;;;25.60;99.90;;;;;;5056744;28;20114;-88
2021/08/15 06:34:32;;;;;;;10.75;7.72;;;25.60;99.90;;;;;;5056436;28;20029;-88
2021/08/15 06:36:58;;;;;;;10.63;7.30;;;25.60;99.90;;;;;;5058356;28;20450;-87
2021/08/15 06:39:29;;;;;;;9.40;6.90;;;25.60;99.90;;;;;;5057856;28;20027;-88
2021/08/15 06:41:58;;;;;;;9.10;6.80;;;25.60;99.90;;;;;;5056718;28;20508;-88
2021/08/15 06:44:28;;;;;;;9.70;6.80;;;25.60;99.90;;;;;;5055814;28;20139;-88
2021/08/15 06:46:54;;;;;;;7.65;5.80;;;25.60;99.90;;;;;;5074312;28;20020;-88
2021/08/15 06:49:22;;;;;;;9.48;6.18;;;25.60;99.90;;;;;;5074073;28;20035;-89
2021/08/15 06:51:48;;;;;;;9.45;6.22;;;25.60;99.90;;;;;;5074077;28;20035;-88
2021/08/15 06:54:14;;;;;;;8.82;5.57;;;25.60;99.90;;;;;;5074419;28;20024;-88
2021/08/15 06:56:41;;;;;;;7.47;5.82;;;25.60;99.90;;;;;;5056157;28;20474;-87
2021/08/15 06:59:10;;;;;;;8.75;5.07;;;25.60;99.90;;;;;;5082872;28;20032;-88
2021/08/15 07:01:35;;;;;;;8.05;5.30;;;25.60;99.90;;;;;;5056193;28;20028;-88
2021/08/15 07:04:07;;;;;;;7.68;5.22;;;25.60;99.90;;;;;;5061519;28;20398;-90
2021/08/15 07:06:37;;;;;;;9.00;5.32;;;25.60;99.90;;;;;;5082683;28;20031;-88
2021/08/15 07:09:03;;;;;;;8.02;5.53;;;25.60;99.90;;;;;;5063362;28;20032;-88
2021/08/15 07:11:31;;;;;;;8.88;5.40;;;25.60;99.90;;;;;;5078686;28;20035;-89
2021/08/15 07:14:01;;;;;;;10.57;5.78;;;25.60;99.90;;;;;;5085438;28;20021;-89
2021/08/15 07:16:29;;;;;;;9.30;5.50;;;25.60;99.90;;;;;;5056077;28;20533;-88
2021/08/15 07:18:57;;;;;;;7.88;4.68;;;25.60;99.90;;;;;;5038845;28;20024;-89
2021/08/15 07:21:28;;;;;;;8.63;5.00;;;25.60;99.90;;;;;;5055650;28;20421;-89
2021/08/15 07:23:57;;;;;;;8.85;5.78;;;25.60;99.90;;;;;;5055016;28;20111;-88
2021/08/15 07:26:26;;;;;;;7.93;5.00;;;25.60;99.90;;;;;;5055152;28;20021;-89
2021/08/15 07:28:52;;;;;;;8.02;4.97;;;25.60;99.90;;;;;;5054815;28;20052;-88
2021/08/15 07:31:18;;;;;;;6.25;4.45;;;25.60;99.90;;;;;;5039137;28;20085;-88
2021/08/15 07:33:46;;;;;;;7.47;4.57;;;25.60;99.90;;;;;;5055438;28;20028;-88
2021/08/15 07:36:14;;;;;;;9.15;5.10;;;25.60;99.90;;;;;;5074014;28;20031;-88
2021/08/15 07:38:40;;;;;;;9.18;4.93;;;25.60;99.90;;;;;;5058604;28;20020;-87
2021/08/15 07:41:06;;;;;;;8.40;5.13;;;25.60;99.90;;;;;;5073311;28;20028;-86
2021/08/15 07:43:34;;;;;;;8.30;4.50;;;25.70;99.90;;;;;;5073498;28;20108;-88
2021/08/15 07:46:00;;;;;;;10.85;4.30;;;25.60;99.90;;;;;;5055380;28;20021;-88
2021/08/15 07:48:28;;;;;;;8.30;4.70;;;25.60;99.90;;;;;;5073237;28;20055;-87
2021/08/15 07:51:03;;;;;;;8.23;4.97;;;25.60;99.90;;;;;;5054836;28;20541;-88
2021/08/15 07:53:29;;;;;;;7.72;4.78;;;25.60;99.90;;;;;;5055425;28;20489;-87
2021/08/15 07:55:58;;;;;;;8.60;5.30;;;25.70;99.90;;;;;;5059158;28;20051;-88
2021/08/15 07:58:27;;;;;;;8.77;4.70;;;25.70;99.90;;;;;;5055156;28;20104;-88
2021/08/15 08:00:58;;;;;;;7.97;4.82;;;25.60;99.90;;;;;;5054858;28;20143;-88
2021/08/15 08:03:31;;;;;;;8.43;4.53;;;25.70;99.90;;;;;;5055224;28;20055;-88
2021/08/15 08:06:00;;;;;;;9.93;4.93;;;25.70;99.90;;;;;;5053873;28;20044;-88
2021/08/15 08:08:31;;;;;;;7.25;4.63;;;25.70;99.90;;;;;;5058009;28;20385;-88
2021/08/15 08:10:58;;;;;;;9.35;4.60;;;25.70;99.90;;;;;;5054827;28;20048;-88
2021/08/15 08:13:26;;;;;;;8.00;4.60;;;25.70;99.90;;;;;;5073807;28;20024;-88
2021/08/15 08:16:05;;;;;;;6.28;4.15;;;25.70;99.90;;;;;;5053984;28;20038;-88
2021/08/15 08:18:33;;;;;;;8.18;4.22;;;25.70;99.90;;;;;;5054765;28;20020;-88
2021/08/15 08:20:59;;;;;;;9.15;4.40;;;25.70;99.90;;;;;;5054779;28;20032;-88
2021/08/15 08:23:24;;;;;;;7.07;4.43;;;25.70;99.90;;;;;;5057355;28;20383;-88
2021/08/15 08:25:51;;;;;;;10.18;4.80;;;25.70;99.90;;;;;;5054132;28;20517;-87
2021/08/15 08:28:19;;;;;;;7.00;4.40;;;25.70;99.90;;;;;;5059853;28;20031;-87
2021/08/15 08:30:44;;;;;;;8.43;4.60;;;25.70;99.90;;;;;;5054387;28;20051;-87
2021/08/15 08:33:20;;;;;;;8.02;4.32;;;25.70;99.90;;;;;;5054247;28;20431;-86
2021/08/15 08:35:50;;;;;;;7.55;4.70;;;25.70;99.90;;;;;;5054554;28;20024;-87
2021/08/15 08:38:16;;;;;;;9.00;5.38;;;25.70;99.90;;;;;;5054327;28;20036;-86
2021/08/15 08:40:45;;;;;;;9.38;4.95;;;25.70;99.90;;;;;;5072251;28;20020;-87
2021/08/15 08:43:11;;;;;;;5.90;4.38;;;25.70;99.90;;;;;;5055077;28;20048;-87
2021/08/15 08:45:41;;;;;;;7.55;5.53;;;25.70;99.90;;;;;;5072492;28;20118;-86
2021/08/15 08:48:10;;;;;;;9.85;5.45;;;25.70;99.90;;;;;;5054582;28;20119;-87
2021/08/15 08:50:45;;;;;;;9.82;5.78;;;25.70;99.90;;;;;;5054521;28;20485;-86
2021/08/15 08:53:11;;;;;;;9.85;4.80;;;25.70;99.90;;;;;;5054742;28;20040;-87
2021/08/15 08:55:39;;;;;;;8.15;5.50;;;25.70;99.90;;;;;;5054176;28;20072;-87
2021/08/15 08:58:08;;;;;;;6.60;4.95;;;25.70;99.90;;;;;;5054240;28;20024;-86
2021/08/15 09:00:37;;;;;;;7.95;5.60;;;25.70;99.90;;;;;;5072437;28;20099;-87
2021/08/15 09:03:03;;;;;;;8.07;4.65;;;25.70;99.90;;;;;;5072379;28;20647;-86
2021/08/15 09:05:34;;;;;;;7.28;5.15;;;25.70;99.90;;;;;;5054236;28;20056;-86
2021/08/15 09:08:00;;;;;;;11.38;5.22;;;25.70;99.90;;;;;;5054259;28;20029;-87
2021/08/15 09:10:39;;;;;;;7.72;4.97;;;25.70;99.90;;;;;;5054184;28;20028;-86
2021/08/15 09:13:12;;;;;;;8.95;5.63;;;25.70;99.90;;;;;;5071964;28;20098;-86
2021/08/15 09:15:45;;;;;;;7.30;5.00;;;25.70;99.90;;;;;;5055931;28;20511;-86
2021/08/15 09:18:29;;;;;;;8.32;5.03;;;25.70;99.90;;;;;;5072377;28;20028;-88
2021/08/15 09:20:55;;;;;;;7.75;4.80;;;25.70;99.90;;;;;;5074686;28;20029;-89
2021/08/15 09:23:27;;;;;;;7.32;5.00;;;25.70;99.90;;;;;;5053587;28;20049;-88
2021/08/15 09:26:30;;;;;;;7.32;5.10;;;25.70;99.90;;;;;;5063161;28;20122;-89
2021/08/15 09:28:56;;;;;;;8.45;4.82;;;25.80;99.90;;;;;;5017373;28;20040;-89
2021/08/15 09:31:37;;;;;;;6.97;4.93;;;25.80;99.90;;;;;;5046441;28;20037;-89
2021/08/15 09:34:12;;;;;;;7.10;4.20;;;25.70;99.90;;;;;;5054929;28;20071;-89
2021/08/15 09:36:44;;;;;;;8.55;4.60;;;25.70;99.90;;;;;;5055553;28;20028;-89
2021/08/15 09:39:11;;;;;;;8.90;5.22;;;25.70;99.90;;;;;;5054396;28;20033;-89
2021/08/15 09:41:48;;;;;;;9.88;5.03;;;25.70;99.90;;;;;;5054347;28;20111;-89
2021/08/15 09:44:31;;;;;;;6.60;4.47;;;25.70;99.90;;;;;;5055562;28;20033;-89
2021/08/15 09:47:11;;;;;;;7.63;4.78;;;25.70;99.90;;;;;;5056245;28;20032;-89
2021/08/15 09:50:09;;;;;;;8.02;5.47;;;25.70;99.90;;;;;;5054975;28;20048;-91
2021/08/15 09:52:40;;;;;;;8.07;4.88;;;25.70;99.90;;;;;;5055526;28;20029;-87
2021/08/15 09:55:09;;;;;;;7.43;4.82;;;25.70;99.90;;;;;;5053731;28;20110;-87
2021/08/15 09:57:39;;;;;;;6.15;4.18;;;25.70;99.90;;;;;;5054056;28;20136;-87
2021/08/15 10:00:26;;;;;;;8.10;4.78;;;25.70;99.90;;;;;;5059239;28;20029;-87
2021/08/15 10:02:53;;;;;;;6.88;4.80;;;25.70;99.90;;;;;;5053219;28;20474;-87
2021/08/15 10:05:23;;;;;;;9.32;5.05;;;25.70;99.90;;;;;;5053795;28;20051;-87
2021/08/15 10:07:53;;;;;;;7.13;4.50;;;25.70;99.90;;;;;;5056715;28;20028;-87
2021/08/15 10:10:18;;;;;;;8.75;4.47;;;25.70;99.90;;;;;;5053344;28;20028;-86
2021/08/15 10:12:46;;;;;;;8.05;4.68;;;25.70;99.90;;;;;;5054906;28;20083;-86
2021/08/15 10:15:17;;;;;;;6.95;4.63;;;25.70;99.90;;;;;;5053190;28;20087;-88
2021/08/15 10:17:48;;;;;;;7.07;4.38;;;25.80;99.90;;;;;;5055557;28;20035;-88
2021/08/15 10:20:29;;;;;;;7.22;4.55;;;25.70;99.90;;;;;;5060754;28;20036;-87
2021/08/15 10:23:08;;;;;;;8.45;5.30;;;25.70;99.80;;;;;;5062171;28;20087;-89
2021/08/15 10:25:46;;;;;;;7.82;4.35;;;25.70;99.70;;;;;;5074653;28;20056;-88
2021/08/15 10:28:49;;;;;;;9.38;4.95;;;25.70;99.60;;;;;;5044882;28;20029;-88
2021/08/15 10:31:22;;;;;;;9.20;5.18;;;25.70;99.60;;;;;;5055867;28;20120;-88
2021/08/15 10:34:08;;;;;;;;;;;;;;;;;;;;;
2021/08/15 10:36:50;;;;;;;9.80;5.40;;;25.70;99.40;;;;;;5074905;28;20265;-88
2021/08/15 10:39:36;;;;;;;10.80;5.50;;;25.70;99.40;;;;;;5040400;28;20029;-89
2021/08/15 10:45:34;;;;;;;11.82;7.03;;;25.70;99.30;;;;;;5031676;28;20090;-89
2021/08/15 10:48:07;;;;;;;15.98;8.00;;;25.70;99.30;;;;;;5058163;28;20050;-88
2021/08/15 10:51:15;;;;;;;12.80;8.23;;;25.70;99.40;;;;;;5073951;28;20107;-91
2021/08/15 10:53:41;;;;;;;10.73;6.35;;;25.70;99.40;;;;;;5047248;28;20032;-86
2021/08/15 10:56:09;;;;;;;11.45;5.60;;;25.80;99.40;;;;;;5057084;28;20039;-88
2021/08/15 10:58:49;;;;;;;11.23;5.50;;;25.70;99.40;;;;;;5058159;28;20431;-91
2021/08/15 11:01:20;;;;;;;9.05;5.28;;;25.70;99.40;;;;;;5073936;28;20407;-89
2021/08/15 11:03:53;;;;;;;8.45;4.97;;;25.70;99.30;;;;;;5073813;28;20121;-89
2021/08/15 11:06:45;;;;;;;6.57;4.03;;;25.70;99.30;;;;;;5056261;28;20020;-89
2021/08/15 11:09:51;;;;;;;7.10;4.60;;;25.70;99.10;;;;;;5077935;28;20031;-89
2021/08/15 11:12:20;;;;;;;5.38;3.70;;;25.70;98.90;;;;;;5055538;28;20032;-89
2021/08/15 11:14:56;;;;;;;6.63;4.00;;;25.60;98.60;;;;;;5055835;28;20062;-90
2021/08/15 11:17:27;;;;;;;6.20;3.72;;;25.60;98.30;;;;;;5055264;28;20024;-89
2021/08/15 11:19:56;;;;;;;5.50;3.95;;;25.60;98.20;;;;;;5055802;28;20099;-89
2021/08/15 11:22:29;;;;;;;6.05;3.53;;;25.60;98.10;;;;;;5055154;28;20052;-89
2021/08/15 11:25:17;;;;;;;5.07;3.85;;;25.60;98.00;;;;;;5075804;28;20033;-90
2021/08/15 11:27:50;;;;;;;5.60;3.42;;;25.60;97.90;;;;;;5046862;28;20029;-89
2021/08/15 11:30:26;;;;;;;6.63;4.47;;;25.60;97.70;;;;;;5054886;28;20028;-90
2021/08/15 11:32:55;;;;;;;5.72;3.90;;;25.60;97.60;;;;;;5074225;28;20470;-89
2021/08/15 11:35:34;;;;;;;5.78;3.83;;;25.60;97.50;;;;;;5055397;28;20028;-89
2021/08/15 11:38:03;;;;;;;6.70;3.83;;;25.60;97.50;;;;;;5055760;28;20066;-90
2021/08/15 11:40:42;;;;;;;;;;;;;;;;;;;;;
2021/08/15 11:43:23;;;;;;;5.40;3.80;;;25.70;97.30;;;;;;5074210;28;20046;-89
2021/08/15 11:45:54;;;;;;;6.25;4.30;;;25.70;97.30;;;;;;5073202;28;20044;-86
2021/08/15 11:48:28;;;;;;;6.82;4.32;;;25.70;97.20;;;;;;5055298;28;20498;-87
2021/08/15 11:51:14;;;;;;;5.72;4.20;;;25.70;97.20;;;;;;5072721;28;20024;-90
2021/08/15 11:53:44;;;;;;;7.07;4.22;;;25.70;97.20;;;;;;5055110;28;20028;-89
2021/08/15 11:56:14;;;;;;;5.90;3.90;;;25.70;97.30;;;;;;5073191;28;20025;-90
2021/08/15 11:58:55;;;;;;;7.95;5.18;;;25.70;97.40;;;;;;5055803;28;20058;-90
2021/08/15 12:01:29;;;;;;;5.35;3.97;;;25.70;97.30;;;;;;5038709;28;20051;-90
2021/08/15 12:04:06;;;;;;;7.70;4.88;;;25.80;97.20;;;;;;5055448;28;20037;-88
2021/08/15 12:06:38;;;;;;;7.88;4.60;;;25.80;97.10;;;;;;5039093;28;20036;-86
2021/08/15 12:09:29;;;;;;;10.23;4.90;;;25.80;97.00;;;;;;5054702;28;20029;-94
2021/08/15 12:11:57;;;;;;;7.22;4.72;;;25.70;96.90;;;;;;5055681;28;20025;-86
2021/08/15 12:14:31;;;;;;;6.78;4.47;;;25.70;96.90;;;;;;5054451;28;20063;-87
2021/08/15 12:16:58;;;;;;;7.03;4.50;;;25.80;96.80;;;;;;5039574;28;20048;-87
2021/08/15 12:19:34;;;;;;;7.38;5.30;;;25.80;96.60;;;;;;5054352;28;20741;-87
2021/08/15 12:22:16;;;;;;;7.05;4.95;;;25.80;96.60;;;;;;5054361;28;20081;-87
2021/08/15 12:24:44;;;;;;;5.97;4.20;;;25.80;96.40;;;;;;5054761;28;20036;-87
2021/08/15 12:27:12;;;;;;;7.70;4.88;;;25.80;96.30;;;;;;5042944;28;20056;-87
2021/08/15 12:29:44;;;;;;;6.80;4.40;;;25.80;96.30;;;;;;5038081;28;20032;-87
2021/08/15 12:32:21;;;;;;;7.72;4.70;;;25.80;96.20;;;;;;5072294;28;20048;-87
2021/08/15 12:34:53;;;;;;;6.35;4.13;;;25.80;96.20;;;;;;5061054;28;20032;-87
2021/08/15 12:37:29;;;;;;;5.25;4.28;;;25.80;96.20;;;;;;5054492;28;20032;-87
2021/08/15 12:40:08;;;;;;;7.78;4.65;;;25.80;96.20;;;;;;5077393;28;20063;-87
2021/08/15 12:42:44;;;;;;;5.78;4.07;;;25.80;96.10;;;;;;5054741;28;20474;-87
2021/08/15 12:45:11;;;;;;;7.18;4.47;;;25.80;96.10;;;;;;5054389;28;20119;-88
2021/08/15 12:47:41;;;;;;;7.68;4.18;;;25.80;96.00;;;;;;5060940;28;20086;-87
2021/08/15 12:50:12;;;;;;;6.45;4.30;;;25.80;95.90;;;;;;5047536;28;20562;-87
2021/08/15 12:53:01;;;;;;;6.43;4.43;;;25.80;95.80;;;;;;5054919;28;20397;-87
2021/08/15 12:55:53;;;;;;;8.38;4.97;;;25.80;95.80;;;;;;5054133;28;20028;-87
2021/08/15 12:58:32;;;;;;;;;;;;;;;;;;;;;